Time;durP1;ratioP1;P1;durP2;ratioP2;P2;SDS_P1;SDS_P2;PMS_P1;PMS_P2;Temp;Humidity;BMP_temperature;BMP_pressure;BME280_temperature;BME280_humidity;BME280_pressure;Samples;Min_cycle;Max_cycle;Signal;HPM_P1;HPM_P2
2022/05/20 00:00:43;;;;;;;40.72;27.70;;;16.50;99.90;;;;;;5039788;28;20021;-76
2022/05/20 00:03:09;;;;;;;39.35;28.50;;;16.40;99.90;;;;;;5022272;28;20102;-76
2022/05/20 00:05:35;;;;;;;39.28;31.13;;;16.50;99.90;;;;;;5023171;28;20021;-75
2022/05/20 00:08:01;;;;;;;45.88;31.88;;;16.40;99.90;;;;;;5046287;28;20021;-76
2022/05/20 00:10:27;;;;;;;47.13;32.05;;;16.30;99.90;;;;;;5028139;28;20022;-75
2022/05/20 00:12:53;;;;;;;46.25;33.80;;;16.30;99.90;;;;;;5028082;28;20026;-76
2022/05/20 00:15:22;;;;;;;47.22;33.22;;;16.30;99.90;;;;;;5045243;28;20026;-76
2022/05/20 00:17:48;;;;;;;44.35;31.85;;;16.20;99.90;;;;;;5045306;28;20029;-76
2022/05/20 00:20:17;;;;;;;42.55;32.85;;;16.10;99.90;;;;;;5045158;28;20026;-76
2022/05/20 00:22:43;;;;;;;43.15;33.08;;;16.20;99.90;;;;;;5027758;28;20108;-76
2022/05/20 00:27:54;;;;;;;40.88;29.70;;;16.10;99.90;;;;;;5047361;28;20084;-75
2022/05/20 00:30:20;;;;;;;37.85;28.48;;;16.10;99.90;;;;;;5044872;28;20026;-75
2022/05/20 00:32:52;;;;;;;45.70;31.02;;;16.00;99.90;;;;;;5056191;28;20025;-75
2022/05/20 00:35:19;;;;;;;39.20;29.67;;;16.00;99.90;;;;;;5046906;28;20018;-75
2022/05/20 00:37:45;;;;;;;39.08;30.30;;;15.90;99.90;;;;;;5024606;28;20025;-75
2022/05/20 00:40:13;;;;;;;37.00;27.95;;;15.90;99.90;;;;;;5041784;28;20060;-76
2022/05/20 00:42:40;;;;;;;36.40;28.40;;;15.90;99.90;;;;;;5030584;28;20022;-75
2022/05/20 00:45:07;;;;;;;37.17;28.60;;;15.90;99.90;;;;;;5040240;28;20081;-75
2022/05/20 00:47:33;;;;;;;39.25;29.65;;;15.90;99.90;;;;;;5039927;28;20048;-75
2022/05/20 00:50:02;;;;;;;40.17;30.15;;;15.90;99.90;;;;;;5039736;28;20025;-75
2022/05/20 00:52:31;;;;;;;38.70;28.73;;;15.90;99.90;;;;;;5037704;28;20025;-76
2022/05/20 00:55:01;;;;;;;39.88;28.55;;;15.90;99.90;;;;;;5039960;28;20030;-75
2022/05/20 00:57:52;;;;;;;41.45;27.85;;;15.90;99.90;;;;;;5041091;28;20025;-76
2022/05/20 01:00:27;;;;;;;36.20;26.37;;;15.90;99.90;;;;;;5021798;28;20482;-76
2022/05/20 01:02:57;;;;;;;35.25;26.00;;;15.90;99.90;;;;;;5041256;28;20028;-76
2022/05/20 01:05:41;;;;;;;35.83;26.08;;;15.90;99.90;;;;;;5041433;28;20105;-75
2022/05/20 01:08:07;;;;;;;29.25;24.33;;;15.90;99.90;;;;;;5023503;28;20021;-75
2022/05/20 01:10:33;;;;;;;29.95;23.83;;;15.80;99.90;;;;;;5041044;28;20048;-75
2022/05/20 01:12:59;;;;;;;30.70;22.65;;;15.80;99.90;;;;;;5040034;28;20026;-75
2022/05/20 01:15:25;;;;;;;28.83;22.35;;;15.80;99.90;;;;;;5042446;28;20033;-76
2022/05/20 01:17:53;;;;;;;26.75;22.73;;;15.80;99.90;;;;;;5040350;28;20037;-76
2022/05/20 01:20:27;;;;;;;30.58;23.38;;;15.80;99.90;;;;;;5032361;28;20021;-75
2022/05/20 01:23:01;;;;;;;29.70;23.48;;;15.80;99.90;;;;;;5043022;28;20033;-75
2022/05/20 01:25:29;;;;;;;29.58;23.45;;;15.70;99.90;;;;;;5025737;28;20021;-75
2022/05/20 01:27:55;;;;;;;29.67;21.95;;;15.60;99.90;;;;;;5045689;28;20025;-76
2022/05/20 01:30:23;;;;;;;30.58;22.52;;;15.60;99.90;;;;;;5049547;28;20112;-75
2022/05/20 01:32:49;;;;;;;30.13;22.25;;;15.50;99.90;;;;;;5044641;28;20483;-76
2022/05/20 01:35:22;;;;;;;23.92;21.10;;;15.50;99.90;;;;;;5038470;28;20113;-76
2022/05/20 01:37:47;;;;;;;24.52;18.88;;;15.60;99.90;;;;;;5036789;28;20489;-76
2022/05/20 01:40:13;;;;;;;25.60;17.58;;;15.50;99.90;;;;;;5038159;28;20041;-76
2022/05/20 01:42:58;;;;;;;16.40;12.98;;;15.50;99.90;;;;;;5038514;28;20020;-76
2022/05/20 01:45:33;;;;;;;16.38;11.55;;;15.40;99.90;;;;;;5038903;28;20467;-76
2022/05/20 01:48:09;;;;;;;13.18;10.77;;;15.30;99.90;;;;;;5020085;28;20057;-76
2022/05/20 01:50:47;;;;;;;14.60;10.35;;;15.20;99.90;;;;;;5038678;28;20029;-76
2022/05/20 01:53:39;;;;;;;14.88;10.32;;;15.20;99.90;;;;;;5038639;28;20025;-76
2022/05/20 01:56:27;;;;;;;12.52;10.07;;;15.10;99.90;;;;;;5009488;28;20494;-76
2022/05/20 01:58:58;;;;;;;10.07;8.63;;;15.10;99.90;;;;;;5021355;28;20034;-76
2022/05/20 02:01:33;;;;;;;11.65;8.90;;;15.10;99.90;;;;;;5041151;28;20083;-76
2022/05/20 02:04:04;;;;;;;11.25;8.80;;;15.10;99.90;;;;;;5039960;28;20085;-75
2022/05/20 02:06:33;;;;;;;;;;;15.10;99.90;;;;;;5038678;28;20024;-76
2022/05/20 02:09:01;;;;;;;12.85;8.88;;;15.10;99.90;;;;;;5039684;28;19905;-76
2022/05/20 02:11:37;;;;;;;9.45;7.70;;;15.00;99.90;;;;;;5038327;28;20029;-76
2022/05/20 02:14:24;;;;;;;11.93;8.27;;;15.00;99.90;;;;;;5020120;28;20026;-76
2022/05/20 02:17:15;;;;;;;15.15;8.80;;;14.90;99.90;;;;;;5020579;28;20026;-77
2022/05/20 02:19:52;;;;;;;12.55;8.75;;;14.90;99.90;;;;;;5021775;28;20206;-76
2022/05/20 02:22:24;;;;;;;14.63;9.02;;;14.80;99.90;;;;;;5037937;28;20028;-75
2022/05/20 02:24:50;;;;;;;14.60;9.18;;;14.80;99.90;;;;;;5037115;28;20021;-76
2022/05/20 02:27:21;;;;;;;12.90;8.32;;;14.70;99.90;;;;;;5037760;28;20029;-76
2022/05/20 02:30:09;;;;;;;11.55;8.32;;;14.70;99.90;;;;;;5038168;28;20032;-76
2022/05/20 02:32:56;;;;;;;12.45;8.45;;;14.60;99.90;;;;;;5020591;28;20104;-76
2022/05/20 02:35:22;;;;;;;12.57;8.73;;;14.60;99.90;;;;;;5040745;28;20076;-75
2022/05/20 02:37:48;;;;;;;9.52;7.68;;;14.50;99.90;;;;;;5046792;28;20429;-76
2022/05/20 02:40:16;;;;;;;10.30;8.43;;;14.40;99.90;;;;;;5038815;28;20032;-75
2022/05/20 02:42:42;;;;;;;12.50;7.57;;;14.40;99.90;;;;;;5037169;28;20025;-75
2022/05/20 02:45:09;;;;;;;9.50;7.30;;;14.30;99.90;;;;;;5036887;28;20068;-75
2022/05/20 02:47:36;;;;;;;11.07;6.80;;;14.20;99.90;;;;;;5036794;28;20021;-75
2022/05/20 02:50:04;;;;;;;8.48;6.70;;;14.10;99.90;;;;;;5037993;28;20041;-76
2022/05/20 02:52:30;;;;;;;13.25;7.00;;;14.20;99.90;;;;;;5037782;28;20031;-76
2022/05/20 02:54:56;;;;;;;10.65;6.50;;;14.10;99.90;;;;;;5037342;28;20101;-75
2022/05/20 02:57:21;;;;;;;9.43;6.28;;;14.10;99.90;;;;;;5036721;28;20069;-75
2022/05/20 03:05:19;;;;;;;9.15;5.72;;;14.10;99.90;;;;;;5036871;28;20075;-77
2022/05/20 03:07:45;;;;;;;10.40;5.10;;;14.10;99.90;;;;;;5036942;28;20021;-74
2022/05/20 03:10:11;;;;;;;9.60;4.93;;;14.10;99.90;;;;;;5036553;28;20044;-76
2022/05/20 03:12:37;;;;;;;10.20;4.97;;;14.20;99.90;;;;;;5036587;28;20036;-76
2022/05/20 03:15:07;;;;;;;9.35;5.15;;;14.20;99.90;;;;;;5036427;28;20026;-76
2022/05/20 03:17:33;;;;;;;8.43;5.05;;;14.20;99.90;;;;;;5018489;28;20032;-75
2022/05/20 03:19:59;;;;;;;21.40;5.55;;;14.20;99.90;;;;;;5018549;28;20112;-75
2022/05/20 03:22:25;;;;;;;8.63;5.03;;;14.20;99.90;;;;;;5019413;28;20076;-75
2022/05/20 03:24:50;;;;;;;8.27;5.30;;;14.10;99.90;;;;;;5018802;28;20022;-75
2022/05/20 03:27:19;;;;;;;7.10;5.35;;;14.10;99.90;;;;;;5018934;28;20079;-75
2022/05/20 03:29:45;;;;;;;10.02;4.63;;;14.20;99.90;;;;;;5019250;28;20022;-75
2022/05/20 03:32:11;;;;;;;6.32;4.60;;;14.10;99.90;;;;;;5037173;28;20391;-76
2022/05/20 03:34:38;;;;;;;12.40;5.30;;;14.00;99.90;;;;;;5045636;28;20045;-75
2022/05/20 03:37:04;;;;;;;8.95;4.75;;;14.00;99.90;;;;;;5035072;28;20452;-75
2022/05/20 03:39:30;;;;;;;7.90;4.80;;;14.00;99.90;;;;;;5036645;28;20037;-75
2022/05/20 03:41:56;;;;;;;9.50;4.35;;;14.00;99.90;;;;;;5021239;28;20033;-75
2022/05/20 03:44:22;;;;;;;10.00;4.88;;;14.00;99.90;;;;;;5029806;28;20044;-75
2022/05/20 03:46:53;;;;;;;11.30;5.45;;;14.00;99.90;;;;;;5036477;28;20455;-75
2022/05/20 03:49:20;;;;;;;10.00;5.53;;;13.90;99.90;;;;;;5036398;28;20092;-75
2022/05/20 03:51:47;;;;;;;5.65;4.85;;;13.90;99.90;;;;;;5020189;28;20029;-74
2022/05/20 03:54:15;;;;;;;13.80;5.85;;;13.90;99.90;;;;;;5020624;28;20548;-75
2022/05/20 03:56:41;;;;;;;11.32;5.40;;;13.90;99.90;;;;;;5018769;28;20037;-75
2022/05/20 03:59:10;;;;;;;12.52;6.35;;;13.90;99.90;;;;;;5035596;28;20033;-75
2022/05/20 04:04:22;;;;;;;14.60;7.05;;;13.80;99.90;;;;;;5035980;28;20040;-75
2022/05/20 04:06:48;;;;;;;11.52;6.63;;;13.70;99.90;;;;;;5036055;28;20475;-75
2022/05/20 04:09:13;;;;;;;13.20;6.63;;;13.70;99.90;;;;;;5036055;28;20084;-75
2022/05/20 04:11:39;;;;;;;10.90;6.95;;;13.70;99.90;;;;;;5036031;28;20550;-76
2022/05/20 04:14:05;;;;;;;9.50;6.78;;;13.70;99.90;;;;;;5035778;28;20034;-75
2022/05/20 04:16:30;;;;;;;12.70;7.25;;;13.80;99.90;;;;;;5036213;28;20021;-75
2022/05/20 04:18:56;;;;;;;11.05;6.45;;;13.80;99.90;;;;;;5017678;28;20025;-75
2022/05/20 04:21:22;;;;;;;9.25;6.28;;;13.70;99.90;;;;;;5035629;28;20022;-75
2022/05/20 04:23:48;;;;;;;9.05;6.50;;;13.80;99.90;;;;;;5035028;28;20029;-75
2022/05/20 04:26:14;;;;;;;9.30;6.32;;;13.80;99.90;;;;;;5035693;28;20073;-74
2022/05/20 04:28:40;;;;;;;7.88;5.68;;;13.80;99.90;;;;;;5035278;28;20037;-76
2022/05/20 04:31:08;;;;;;;7.28;6.00;;;13.80;99.90;;;;;;5035300;28;20113;-75
2022/05/20 04:33:34;;;;;;;5.93;5.30;;;13.80;99.90;;;;;;5035042;28;20088;-75
2022/05/20 04:35:59;;;;;;;6.80;5.63;;;13.90;99.90;;;;;;5037349;28;20101;-76
2022/05/20 04:38:25;;;;;;;11.80;6.35;;;13.90;99.90;;;;;;5038715;28;20053;-75
2022/05/20 04:49:06;;;;;;;11.02;4.68;;;14.00;99.90;;;;;;5050118;28;20043;-77
2022/05/20 04:51:32;;;;;;;8.30;4.63;;;14.00;99.90;;;;;;5041736;28;20109;-78
2022/05/20 04:56:42;;;;;;;7.20;4.70;;;14.00;99.90;;;;;;5041246;28;20056;-77
2022/05/20 04:59:08;;;;;;;8.73;5.18;;;14.00;99.90;;;;;;5041743;28;20029;-77
2022/05/20 05:01:33;;;;;;;10.93;5.00;;;14.00;99.90;;;;;;5041310;28;20434;-77
2022/05/20 05:03:59;;;;;;;9.63;4.65;;;14.00;99.90;;;;;;5022001;28;20021;-76
2022/05/20 05:06:24;;;;;;;8.77;5.40;;;14.10;99.90;;;;;;5021358;28;20071;-77
2022/05/20 05:08:50;;;;;;;7.85;5.25;;;14.10;99.90;;;;;;5039109;28;20041;-77
2022/05/20 05:11:15;;;;;;;7.60;5.13;;;14.10;99.90;;;;;;5037994;28;20026;-77
2022/05/20 05:13:41;;;;;;;8.73;6.25;;;14.10;99.90;;;;;;5038054;28;20029;-77
2022/05/20 05:16:07;;;;;;;8.95;6.10;;;14.00;99.90;;;;;;5038621;28;20064;-77
2022/05/20 05:18:32;;;;;;;12.38;5.72;;;14.10;99.90;;;;;;5039441;28;20021;-77
2022/05/20 05:21:01;;;;;;;9.90;5.75;;;14.10;99.90;;;;;;5039824;28;20032;-77
2022/05/20 05:23:27;;;;;;;9.23;6.13;;;14.10;99.90;;;;;;5040937;28;20030;-77
2022/05/20 05:25:53;;;;;;;9.60;5.70;;;14.20;99.90;;;;;;5023868;28;20048;-77
2022/05/20 05:28:19;;;;;;;8.48;5.63;;;14.20;99.90;;;;;;5043203;28;20021;-77
2022/05/20 05:30:47;;;;;;;9.95;5.53;;;14.30;99.90;;;;;;5044388;28;20021;-77
2022/05/20 05:33:12;;;;;;;6.57;5.03;;;14.40;99.90;;;;;;5046752;28;20076;-77
2022/05/20 05:35:39;;;;;;;8.18;5.10;;;14.50;99.90;;;;;;5047826;28;20327;-77
2022/05/20 05:38:04;;;;;;;7.90;4.63;;;14.60;99.90;;;;;;5038429;28;20090;-77
2022/05/20 05:40:32;;;;;;;8.05;4.53;;;14.70;99.90;;;;;;5037282;28;20021;-77
2022/05/20 05:42:59;;;;;;;6.07;5.05;;;14.80;99.90;;;;;;5038024;28;20017;-77
2022/05/20 05:45:26;;;;;;;16.67;5.38;;;14.80;99.90;;;;;;5036557;28;20112;-77
2022/05/20 05:48:01;;;;;;;7.43;4.45;;;14.80;99.90;;;;;;5037708;28;20080;-77
2022/05/20 05:50:28;;;;;;;6.63;4.82;;;14.90;99.90;;;;;;5038291;28;20037;-77
2022/05/20 05:52:59;;;;;;;8.05;4.65;;;15.00;99.90;;;;;;5038529;28;20030;-78
2022/05/20 05:55:26;;;;;;;10.27;5.25;;;15.10;99.90;;;;;;5044764;28;20059;-77
2022/05/20 05:57:51;;;;;;;11.57;4.55;;;15.20;99.90;;;;;;5038520;28;20037;-77
2022/05/20 06:00:17;;;;;;;12.57;4.80;;;15.20;99.90;;;;;;5037815;28;20094;-76
2022/05/20 06:02:43;;;;;;;8.65;4.47;;;15.20;99.90;;;;;;5037880;28;20072;-75
2022/05/20 06:05:09;;;;;;;9.43;4.75;;;15.10;99.90;;;;;;5037859;28;20104;-75
2022/05/20 06:07:34;;;;;;;10.05;4.05;;;15.10;99.90;;;;;;5038084;28;20099;-76
2022/05/20 06:10:00;;;;;;;7.15;3.53;;;15.20;99.90;;;;;;5038057;28;20037;-75
2022/05/20 06:12:25;;;;;;;8.20;3.80;;;15.30;99.90;;;;;;5038369;28;20435;-75
2022/05/20 06:14:51;;;;;;;7.68;4.15;;;15.40;99.90;;;;;;5037603;28;20029;-76
2022/05/20 06:17:16;;;;;;;8.75;4.35;;;15.40;99.90;;;;;;5020381;28;20026;-75
2022/05/20 06:19:42;;;;;;;8.93;5.13;;;15.40;99.90;;;;;;5037674;28;20028;-75
2022/05/20 06:22:08;;;;;;;7.60;4.55;;;15.40;99.90;;;;;;5037460;28;20026;-76
2022/05/20 06:24:34;;;;;;;5.97;3.90;;;15.40;99.90;;;;;;5038304;28;20080;-75
2022/05/20 06:27:00;;;;;;;5.95;4.03;;;15.40;99.90;;;;;;5037412;28;20014;-75
2022/05/20 06:29:25;;;;;;;8.63;4.13;;;15.60;99.90;;;;;;5037504;28;20032;-75
2022/05/20 06:31:51;;;;;;;9.60;4.10;;;15.80;99.90;;;;;;5037574;28;20027;-75
2022/05/20 06:34:16;;;;;;;11.05;4.40;;;15.90;99.90;;;;;;5036246;28;20475;-76
2022/05/20 06:42:10;;;;;;;9.43;3.58;;;16.20;99.90;;;;;;5037161;28;20028;-76
2022/05/20 06:44:36;;;;;;;10.07;3.45;;;16.20;99.90;;;;;;5036856;28;20025;-75
2022/05/20 06:47:01;;;;;;;8.80;3.28;;;16.20;99.90;;;;;;5037691;28;20076;-75
2022/05/20 06:49:27;;;;;;;12.05;3.63;;;16.20;99.90;;;;;;5037539;28;20033;-75
2022/05/20 06:51:54;;;;;;;4.97;3.10;;;16.30;99.90;;;;;;5037581;28;20075;-75
2022/05/20 06:54:21;;;;;;;6.80;3.40;;;16.40;99.90;;;;;;5037170;28;20037;-74
2022/05/20 06:56:46;;;;;;;8.73;3.25;;;16.60;99.90;;;;;;5037303;28;20392;-74
2022/05/20 06:59:12;;;;;;;6.70;3.97;;;16.80;99.90;;;;;;5040473;28;20108;-74
2022/05/20 07:01:38;;;;;;;6.18;3.10;;;17.00;99.90;;;;;;5040827;28;20395;-75
2022/05/20 07:04:05;;;;;;;6.05;3.35;;;16.90;99.90;;;;;;5032917;28;20024;-74
2022/05/20 07:06:32;;;;;;;4.95;3.53;;;17.00;99.90;;;;;;5036405;28;20025;-74
2022/05/20 07:08:58;;;;;;;5.28;3.40;;;17.00;99.90;;;;;;5016941;28;20041;-74
2022/05/20 07:11:25;;;;;;;5.90;2.75;;;17.00;99.90;;;;;;5018180;28;20045;-74
2022/05/20 07:13:55;;;;;;;5.97;3.35;;;17.00;99.90;;;;;;5036203;28;20137;-73
2022/05/20 07:16:25;;;;;;;8.13;3.07;;;17.00;99.90;;;;;;5033977;28;20030;-73
2022/05/20 07:18:52;;;;;;;8.97;3.77;;;17.20;99.90;;;;;;5026274;28;20030;-73
2022/05/20 07:21:19;;;;;;;6.68;3.17;;;17.40;99.90;;;;;;5033117;28;20356;-73
2022/05/20 07:23:44;;;;;;;12.27;4.45;;;17.60;99.90;;;;;;5036057;28;20022;-73
2022/05/20 07:26:10;;;;;;;10.13;4.82;;;17.50;99.90;;;;;;5036058;28;20449;-73
2022/05/20 07:28:36;;;;;;;6.13;3.58;;;17.40;99.90;;;;;;5032824;28;20475;-72
2022/05/20 07:31:02;;;;;;;9.45;4.78;;;17.10;99.90;;;;;;5032608;28;20037;-73
2022/05/20 07:33:28;;;;;;;9.18;5.13;;;17.10;99.90;;;;;;5038338;28;20056;-72
2022/05/20 07:35:55;;;;;;;8.50;3.90;;;17.10;99.90;;;;;;5024123;28;20022;-73
2022/05/20 07:38:21;;;;;;;11.68;3.88;;;17.00;99.90;;;;;;5018337;28;20034;-73
2022/05/20 07:40:47;;;;;;;8.90;3.50;;;16.90;99.90;;;;;;5035592;28;20021;-74
2022/05/20 07:43:13;;;;;;;5.53;3.08;;;16.80;99.90;;;;;;5036589;28;20022;-75
2022/05/20 07:45:39;;;;;;;7.82;2.75;;;17.00;99.90;;;;;;5036372;28;20100;-74
2022/05/20 07:48:05;;;;;;;8.40;3.30;;;17.10;99.90;;;;;;5036445;28;20096;-74
2022/05/20 07:50:39;;;;;;;10.63;4.00;;;17.40;99.90;;;;;;5036551;28;20427;-75
2022/05/20 07:53:19;;;;;;;4.60;3.25;;;17.70;99.90;;;;;;5036350;28;20089;-74
2022/05/20 07:55:50;;;;;;;7.45;2.80;;;18.00;99.90;;;;;;5037702;28;20036;-74
2022/05/20 07:58:18;;;;;;;5.72;2.70;;;18.20;99.90;;;;;;5051674;28;20344;-73
2022/05/20 08:00:44;;;;;;;9.10;3.55;;;18.40;99.90;;;;;;5049528;28;20025;-73
2022/05/20 08:03:13;;;;;;;5.28;3.17;;;18.40;99.90;;;;;;5035403;28;20026;-73
2022/05/20 08:05:39;;;;;;;6.50;2.97;;;18.40;99.90;;;;;;5040414;28;20084;-73
2022/05/20 08:08:07;;;;;;;6.15;2.88;;;18.40;99.90;;;;;;5043871;28;20112;-73
2022/05/20 08:10:35;;;;;;;11.60;3.33;;;18.40;99.90;;;;;;5018228;28;20156;-74
2022/05/20 08:13:02;;;;;;;6.57;3.35;;;18.60;99.90;;;;;;5035933;28;20029;-73
2022/05/20 08:15:29;;;;;;;8.80;3.60;;;18.80;99.90;;;;;;5016642;28;20053;-74
2022/05/20 08:17:55;;;;;;;4.10;3.03;;;18.90;99.90;;;;;;5016965;28;20095;-73
2022/05/20 08:20:25;;;;;;;9.35;3.78;;;19.00;99.90;;;;;;5036079;28;20029;-74
2022/05/20 08:22:55;;;;;;;10.02;3.60;;;19.10;99.90;;;;;;5035601;28;20399;-74
2022/05/20 08:25:22;;;;;;;7.32;3.63;;;19.10;99.90;;;;;;5035830;28;20030;-74
2022/05/20 08:27:48;;;;;;;6.22;3.90;;;19.10;99.90;;;;;;5024712;28;20038;-74
2022/05/20 08:30:18;;;;;;;8.23;3.67;;;18.80;99.90;;;;;;5019716;28;20379;-75
2022/05/20 08:32:44;;;;;;;8.43;3.72;;;18.70;99.90;;;;;;5022582;28;20475;-73
2022/05/20 08:35:13;;;;;;;8.15;3.33;;;18.60;99.90;;;;;;5029658;28;20092;-74
2022/05/20 08:37:44;;;;;;;6.88;4.03;;;18.60;99.90;;;;;;5019775;28;20026;-73
2022/05/20 08:40:23;;;;;;;7.03;3.67;;;18.40;99.90;;;;;;5019402;28;20101;-74
2022/05/20 08:42:51;;;;;;;6.82;3.92;;;18.50;99.90;;;;;;5019391;28;20041;-74
2022/05/20 08:45:20;;;;;;;5.05;3.33;;;18.70;99.90;;;;;;5019119;28;20037;-74
2022/05/20 08:47:49;;;;;;;9.15;3.25;;;18.70;99.90;;;;;;5020341;28;20057;-74
2022/05/20 08:50:20;;;;;;;7.10;4.00;;;18.80;99.90;;;;;;5077451;22;20049;-72
2022/05/20 08:52:49;;;;;;;8.45;3.08;;;18.80;99.90;;;;;;5057391;28;20025;-73
2022/05/20 08:55:15;;;;;;;5.32;3.47;;;18.90;99.90;;;;;;5056777;28;20109;-74
2022/05/20 08:57:50;;;;;;;8.20;4.05;;;19.00;99.90;;;;;;5057656;28;20055;-73
2022/05/20 09:00:17;;;;;;;6.97;3.25;;;19.20;99.90;;;;;;5057121;28;20067;-73
2022/05/20 09:02:43;;;;;;;4.75;3.10;;;19.20;99.90;;;;;;5054099;28;20021;-72
2022/05/20 09:05:14;;;;;;;6.95;3.50;;;19.40;99.90;;;;;;5045886;28;20107;-74
2022/05/20 09:07:59;;;;;;;7.18;3.78;;;19.40;99.90;;;;;;5037642;28;20041;-73
2022/05/20 09:10:42;;;;;;;5.82;4.13;;;19.50;99.90;;;;;;5042326;28;20116;-73
2022/05/20 09:16:21;;;;;;;9.10;3.58;;;19.70;99.90;;;;;;5045679;28;20082;-73
2022/05/20 09:18:49;;;;;;;6.25;3.42;;;20.00;99.90;;;;;;5029434;28;20083;-72
2022/05/20 09:21:33;;;;;;;7.18;3.78;;;20.00;99.90;;;;;;5048813;28;20053;-72
2022/05/20 09:24:03;;;;;;;6.55;3.80;;;20.00;99.90;;;;;;5035222;28;20025;-73
2022/05/20 09:26:43;;;;;;;10.67;4.10;;;20.00;99.90;;;;;;5040221;28;20036;-74
2022/05/20 09:29:12;;;;;;;7.22;3.30;;;20.10;99.90;;;;;;5046166;28;20326;-73
2022/05/20 09:31:50;;;;;;;5.57;3.35;;;20.10;99.90;;;;;;5033925;28;20505;-74
2022/05/20 09:34:23;;;;;;;7.00;3.30;;;20.20;99.90;;;;;;5057086;28;20186;-74
2022/05/20 09:37:00;;;;;;;6.20;3.17;;;20.30;99.90;;;;;;5039304;28;20478;-74
2022/05/20 09:39:31;;;;;;;4.57;3.10;;;20.20;99.90;;;;;;5055972;28;20052;-74
2022/05/20 09:42:01;;;;;;;6.82;4.28;;;20.20;99.90;;;;;;5038810;28;20120;-73
2022/05/20 09:44:37;;;;;;;6.88;4.32;;;20.20;99.90;;;;;;5051936;28;20025;-72
2022/05/20 09:47:17;;;;;;;6.13;3.80;;;20.30;99.90;;;;;;5055285;28;20017;-73
2022/05/20 09:49:48;;;;;;;8.20;4.07;;;20.30;99.90;;;;;;5053006;28;20024;-73
2022/05/20 09:52:16;;;;;;;;;;;20.40;99.90;;;;;;5036719;28;20029;-72
2022/05/20 09:54:54;;;;;;;6.45;3.80;;;20.50;99.90;;;;;;5056320;28;19911;-73
2022/05/20 09:57:27;;;;;;;13.30;4.30;;;20.60;99.90;;;;;;5059208;28;20113;-73
2022/05/20 10:00:30;;;;;;;7.30;5.00;;;20.60;99.90;;;;;;5053940;28;20028;-73
2022/05/20 10:03:25;;;;;;;8.38;3.85;;;20.60;99.90;;;;;;5037786;28;20036;-73
2022/05/20 10:06:15;;;;;;;6.97;4.07;;;20.40;99.90;;;;;;5053827;28;20032;-73
2022/05/20 10:09:15;;;;;;;8.60;5.53;;;20.40;99.90;;;;;;5036161;28;20020;-74
2022/05/20 10:12:17;;;;;;;6.07;3.70;;;20.30;99.90;;;;;;5037933;28;20041;-73
2022/05/20 10:15:01;;;;;;;6.50;4.18;;;20.10;99.90;;;;;;5051711;28;20037;-72
2022/05/20 10:17:59;;;;;;;6.38;3.85;;;20.00;99.90;;;;;;5050515;28;20032;-72
2022/05/20 10:20:46;;;;;;;4.60;3.08;;;20.10;99.90;;;;;;5054042;28;20028;-72
2022/05/20 10:23:42;;;;;;;5.07;3.38;;;20.30;99.90;;;;;;5053644;28;20021;-73
2022/05/20 10:26:48;;;;;;;4.70;3.35;;;20.40;99.90;;;;;;5052017;28;20082;-73
2022/05/20 10:32:40;;;;;;;6.03;4.03;;;20.50;99.90;;;;;;5052692;28;20397;-73
2022/05/20 10:35:10;;;;;;;7.80;3.67;;;20.50;99.90;;;;;;5047971;28;20033;-73
2022/05/20 10:37:58;;;;;;;5.97;3.42;;;20.50;99.90;;;;;;5030798;28;20069;-74
2022/05/20 10:40:45;;;;;;;6.43;3.50;;;20.60;99.90;;;;;;5047893;28;20028;-73
2022/05/20 10:43:31;;;;;;;6.90;3.28;;;20.60;99.90;;;;;;5049335;28;20353;-73
2022/05/20 10:49:06;;;;;;;5.90;3.20;;;20.70;99.90;;;;;;5049111;28;20484;-73
2022/05/20 10:51:41;;;;;;;6.93;3.10;;;20.80;99.90;;;;;;5049590;28;20088;-73
2022/05/20 10:54:18;;;;;;;7.78;2.88;;;20.90;99.90;;;;;;5048140;28;20114;-73
2022/05/20 10:56:55;;;;;;;6.78;2.92;;;21.00;99.90;;;;;;5050830;28;20025;-72
2022/05/20 10:59:52;;;;;;;5.78;2.75;;;21.20;99.90;;;;;;5048285;28;20021;-72
2022/05/20 11:02:36;;;;;;;5.45;2.92;;;21.30;99.90;;;;;;5031063;28;20036;-72
2022/05/20 11:05:11;;;;;;;5.13;2.90;;;21.40;99.90;;;;;;5028495;28;20381;-73
2022/05/20 11:08:20;;;;;;;3.67;2.88;;;21.30;99.90;;;;;;5029885;28;20025;-73
2022/05/20 11:11:26;;;;;;;4.18;2.53;;;21.40;99.90;;;;;;4961720;28;20042;-72
2022/05/20 11:14:16;;;;;;;5.82;2.40;;;21.50;99.90;;;;;;5047012;28;20032;-72
2022/05/20 11:17:17;;;;;;;5.03;2.58;;;21.60;99.90;;;;;;5046969;28;20217;-73
2022/05/20 11:20:16;;;;;;;4.85;2.50;;;21.70;99.90;;;;;;5050579;28;20041;-72
2022/05/20 11:23:00;;;;;;;5.38;2.88;;;21.90;99.90;;;;;;5046255;28;20078;-72
2022/05/20 11:25:57;;;;;;;6.25;2.53;;;22.00;99.90;;;;;;5052439;28;20106;-72
2022/05/20 11:28:48;;;;;;;2.97;2.33;;;22.10;99.90;;;;;;5047583;28;20031;-73
2022/05/20 11:31:46;;;;;;;6.10;3.27;;;22.00;99.90;;;;;;5049743;28;20013;-73
2022/05/20 11:34:39;;;;;;;4.38;2.80;;;22.00;99.90;;;;;;5048237;28;20021;-73
2022/05/20 11:37:29;;;;;;;3.95;2.22;;;22.10;99.90;;;;;;5044250;28;20103;-74
2022/05/20 11:40:15;;;;;;;4.30;2.53;;;22.00;99.90;;;;;;5045832;28;20021;-73
2022/05/20 11:43:07;;;;;;;4.10;2.20;;;21.90;99.90;;;;;;5049341;28;20028;-73
2022/05/20 11:45:35;;;;;;;5.65;2.58;;;22.00;99.90;;;;;;5049855;28;20474;-73
2022/05/20 11:48:25;;;;;;;7.05;2.80;;;22.00;99.90;;;;;;5049608;28;20397;-73
2022/05/20 11:51:00;;;;;;;4.70;2.47;;;22.10;99.90;;;;;;5051158;28;20064;-73
2022/05/20 11:53:50;;;;;;;5.78;2.10;;;22.10;99.90;;;;;;5031175;28;20444;-72
2022/05/20 11:56:38;;;;;;;6.35;2.40;;;22.10;99.90;;;;;;5049505;28;20070;-73
2022/05/20 11:59:19;;;;;;;5.03;2.75;;;22.20;99.90;;;;;;5046805;28;20104;-74
2022/05/20 12:01:48;;;;;;;4.53;2.90;;;22.30;99.90;;;;;;5049260;28;20071;-74
2022/05/20 12:04:17;;;;;;;5.18;2.70;;;22.30;99.90;;;;;;5057732;28;20028;-74
2022/05/20 12:06:52;;;;;;;8.00;3.10;;;22.30;99.90;;;;;;5036635;28;20049;-73
2022/05/20 12:09:48;;;;;;;7.82;2.53;;;22.30;99.90;;;;;;5054450;28;20167;-75
2022/05/20 12:12:27;;;;;;;4.15;2.30;;;22.30;99.90;;;;;;5052156;28;20065;-73
2022/05/20 12:15:01;;;;;;;7.00;2.63;;;22.30;99.90;;;;;;5052701;28;20017;-73
2022/05/20 12:17:48;;;;;;;6.40;2.40;;;22.40;99.90;;;;;;5053996;28;20473;-74
2022/05/20 12:26:21;;;;;;;7.10;4.30;;;22.50;99.90;;;;;;5050391;28;20470;-74
2022/05/20 12:28:47;;;;;;;8.88;5.38;;;22.40;99.90;;;;;;5018234;28;20021;-74
2022/05/20 12:31:48;;;;;;;3.70;2.70;;;22.50;99.90;;;;;;5056312;28;20028;-75
2022/05/20 12:34:38;;;;;;;7.88;2.92;;;22.50;99.90;;;;;;5016155;28;20045;-74
2022/05/20 12:37:04;;;;;;;4.88;2.53;;;22.60;99.90;;;;;;5048212;28;20102;-74
2022/05/20 12:39:47;;;;;;;5.30;3.05;;;22.60;99.90;;;;;;5039060;28;20033;-74
2022/05/20 12:42:38;;;;;;;3.83;2.53;;;22.60;99.90;;;;;;5054313;28;20028;-74
2022/05/20 12:45:09;;;;;;;8.90;4.93;;;22.70;99.90;;;;;;5057553;28;20135;-73
2022/05/20 12:47:37;;;;;;;6.53;2.75;;;22.60;99.90;;;;;;5038226;28;20017;-74
2022/05/20 12:50:07;;;;;;;3.13;2.45;;;22.50;99.90;;;;;;5053140;28;20024;-75
2022/05/20 12:52:54;;;;;;;2.88;2.45;;;22.50;99.90;;;;;;5067496;28;20028;-74
2022/05/20 12:55:28;;;;;;;2.90;2.20;;;22.40;99.90;;;;;;5075733;28;20016;-73
2022/05/20 12:57:57;;;;;;;4.95;2.85;;;22.40;99.90;;;;;;5057550;28;20017;-74
2022/05/20 13:00:40;;;;;;;2.42;2.10;;;22.40;99.90;;;;;;5039760;28;20537;-75
2022/05/20 13:03:42;;;;;;;3.38;2.40;;;22.40;99.90;;;;;;5056733;28;20032;-73
2022/05/20 13:06:27;;;;;;;4.60;2.08;;;22.40;99.90;;;;;;5052722;28;20021;-73
2022/05/20 13:09:04;;;;;;;4.85;2.20;;;22.40;99.90;;;;;;5055845;28;20090;-74
2022/05/20 13:11:46;;;;;;;4.57;2.00;;;22.30;99.90;;;;;;5057210;28;20017;-73
2022/05/20 13:14:16;;;;;;;5.38;2.47;;;22.40;99.90;;;;;;5036953;28;20033;-74
2022/05/20 13:16:48;;;;;;;3.67;1.57;;;22.50;99.90;;;;;;5055609;28;20390;-74
2022/05/20 13:19:15;;;;;;;5.45;2.30;;;22.60;99.90;;;;;;5057375;28;20382;-76
2022/05/20 13:21:53;;;;;;;6.13;2.50;;;22.70;99.90;;;;;;5057932;28;20091;-74
2022/05/20 13:24:26;;;;;;;2.70;1.70;;;22.80;99.90;;;;;;5057189;28;20103;-73
2022/05/20 13:27:03;;;;;;;3.08;2.00;;;23.00;99.90;;;;;;5036792;28;20017;-74
2022/05/20 13:29:29;;;;;;;3.08;1.85;;;23.00;99.90;;;;;;5057203;28;20099;-73
2022/05/20 13:32:20;;;;;;;7.10;3.55;;;23.10;99.90;;;;;;5055225;28;20025;-74
2022/05/20 13:34:49;;;;;;;6.07;2.60;;;23.20;99.90;;;;;;5046144;28;20677;-73
2022/05/20 13:37:19;;;;;;;3.17;2.20;;;23.30;99.90;;;;;;5038485;28;20021;-73
2022/05/20 13:39:45;;;;;;;4.30;2.97;;;23.30;99.90;;;;;;5038584;28;20162;-73
2022/05/20 13:42:15;;;;;;;3.13;2.13;;;23.30;99.90;;;;;;5053242;28;20036;-73
2022/05/20 13:44:44;;;;;;;5.18;2.00;;;23.30;99.90;;;;;;5054052;28;20017;-74
2022/05/20 13:49:57;;;;;;;6.20;2.10;;;23.30;99.90;;;;;;5055846;28;20250;-74
2022/05/20 13:52:23;;;;;;;2.47;2.17;;;23.30;99.90;;;;;;5053491;28;20466;-74
2022/05/20 13:54:59;;;;;;;2.58;2.38;;;23.30;99.90;;;;;;5055849;28;20033;-74